createdAt,value
2023-05-06T00:01:03.943Z,15.80
2023-05-06T00:03:30.813Z,14.77
2023-05-06T00:06:02.953Z,16.95
2023-05-06T00:08:29.565Z,14.70
2023-05-06T00:10:56.401Z,17.02
2023-05-06T00:13:22.966Z,15.45
2023-05-06T00:15:49.558Z,15.63
2023-05-06T00:18:16.536Z,17.90
2023-05-06T00:20:43.409Z,14.60
2023-05-06T00:23:09.981Z,16.83
2023-05-06T00:25:36.600Z,19.45
2023-05-06T00:28:03.368Z,19.58
2023-05-06T00:30:30.000Z,16.52
2023-05-06T00:32:56.700Z,19.20
2023-05-06T00:35:23.345Z,23.55
2023-05-06T00:38:10.951Z,18.95
2023-05-06T00:40:37.574Z,15.88
2023-05-06T00:43:04.214Z,21.05
2023-05-06T00:45:31.096Z,15.32
2023-05-06T00:47:58.961Z,14.50
2023-05-06T00:50:28.369Z,15.32
2023-05-06T00:52:57.066Z,12.15
2023-05-06T00:55:24.364Z,15.05
2023-05-06T00:57:52.221Z,16.20
2023-05-06T01:00:20.280Z,17.85
2023-05-06T01:02:48.262Z,16.50
2023-05-06T01:05:21.113Z,15.05
2023-05-06T01:08:01.111Z,17.90
2023-05-06T01:10:48.987Z,19.92
2023-05-06T01:13:27.100Z,16.15
2023-05-06T01:15:55.899Z,14.63
2023-05-06T01:18:25.652Z,17.33
2023-05-06T01:20:54.704Z,16.83
2023-05-06T01:23:21.462Z,24.50
2023-05-06T01:25:48.213Z,20.17
2023-05-06T01:28:14.994Z,18.70
2023-05-06T01:31:05.421Z,17.30
2023-05-06T01:33:43.861Z,18.95
2023-05-06T01:36:30.610Z,17.67
2023-05-06T01:39:10.087Z,13.32
2023-05-06T01:41:42.108Z,22.20
2023-05-06T01:44:10.896Z,18.45
2023-05-06T01:46:37.695Z,18.48
2023-05-06T01:49:08.156Z,19.00
2023-05-06T01:51:34.982Z,21.45
2023-05-06T01:54:02.442Z,17.73
2023-05-06T01:56:30.394Z,18.70
2023-05-06T01:58:59.529Z,16.38
2023-05-06T02:01:26.966Z,17.90
2023-05-06T02:03:53.718Z,15.68
2023-05-06T02:06:20.375Z,20.92
2023-05-06T02:08:47.144Z,20.83
2023-05-06T02:11:13.735Z,17.15
2023-05-06T02:13:40.461Z,21.52
2023-05-06T02:16:08.955Z,18.13
2023-05-06T02:18:35.813Z,22.35
2023-05-06T02:21:03.359Z,20.92
2023-05-06T02:23:30.067Z,17.92
2023-05-06T02:25:58.115Z,15.88
2023-05-06T02:28:25.449Z,16.15
2023-05-06T02:30:56.555Z,15.02
2023-05-06T02:33:23.851Z,16.30
2023-05-06T02:35:51.629Z,15.27
2023-05-06T02:38:19.295Z,18.08
2023-05-06T02:40:45.925Z,19.63
2023-05-06T02:43:12.620Z,19.02
2023-05-06T02:45:39.440Z,19.15
2023-05-06T02:48:06.407Z,17.35
2023-05-06T02:50:33.883Z,16.75
2023-05-06T02:53:00.478Z,16.10
2023-05-06T02:55:27.159Z,19.05
2023-05-06T02:57:53.787Z,20.58
2023-05-06T03:00:21.043Z,18.30
2023-05-06T03:02:47.643Z,17.75
2023-05-06T03:05:14.295Z,20.60
2023-05-06T03:07:41.399Z,16.75
2023-05-06T03:10:08.309Z,17.20
2023-05-06T03:12:35.134Z,17.25
2023-05-06T03:15:04.394Z,19.40
2023-05-06T03:17:31.043Z,17.20
2023-05-06T03:19:57.716Z,25.05
2023-05-06T03:22:24.329Z,17.88
2023-05-06T03:24:50.959Z,18.50
2023-05-06T03:27:17.630Z,20.13
2023-05-06T03:29:44.235Z,19.98
2023-05-06T03:32:10.841Z,20.38
2023-05-06T03:34:37.514Z,20.65
2023-05-06T03:37:04.132Z,19.30
2023-05-06T03:39:30.941Z,16.42
2023-05-06T03:41:57.694Z,17.20
2023-05-06T03:44:24.388Z,19.52
2023-05-06T03:46:50.963Z,15.50
2023-05-06T03:49:17.590Z,16.08
2023-05-06T03:51:44.223Z,16.45
2023-05-06T03:54:11.027Z,14.38
2023-05-06T03:56:37.670Z,15.50
2023-05-06T03:59:04.260Z,15.30
2023-05-06T04:01:30.906Z,17.90
2023-05-06T04:03:57.678Z,18.42
2023-05-06T04:06:24.366Z,15.25
2023-05-06T04:08:50.983Z,15.60
2023-05-06T04:11:17.547Z,16.13
2023-05-06T04:13:44.334Z,14.45
2023-05-06T04:16:11.139Z,16.38
2023-05-06T04:18:37.854Z,16.25
2023-05-06T04:21:04.654Z,16.70
2023-05-06T04:23:31.352Z,16.38
2023-05-06T04:25:58.129Z,16.95
2023-05-06T04:28:24.812Z,17.50
2023-05-06T04:30:53.926Z,18.08
2023-05-06T04:33:24.096Z,17.98
2023-05-06T04:35:54.736Z,14.77
2023-05-06T04:38:25.937Z,18.70
2023-05-06T04:40:52.847Z,17.80
2023-05-06T04:43:19.720Z,17.20
2023-05-06T04:45:49.881Z,14.77
2023-05-06T04:48:22.060Z,17.67
2023-05-06T04:50:49.673Z,15.95
2023-05-06T04:53:16.819Z,16.13
2023-05-06T04:55:43.792Z,15.85
2023-05-06T04:58:13.310Z,13.85
2023-05-06T05:00:40.058Z,14.77
2023-05-06T05:03:06.734Z,21.25
2023-05-06T05:05:36.429Z,16.10
2023-05-06T05:08:03.197Z,17.60
2023-05-06T05:10:29.845Z,15.88
2023-05-06T05:12:56.545Z,16.17
2023-05-06T05:15:23.220Z,18.60
2023-05-06T05:17:51.184Z,16.05
2023-05-06T05:20:20.224Z,15.73
2023-05-06T05:22:46.822Z,14.93
2023-05-06T05:25:13.676Z,13.18
2023-05-06T05:27:42.277Z,14.57
2023-05-06T05:30:09.477Z,18.13
2023-05-06T05:32:36.344Z,12.82
2023-05-06T05:35:03.064Z,12.73
2023-05-06T05:37:29.733Z,12.27
2023-05-06T05:39:56.353Z,12.30
2023-05-06T05:42:22.991Z,9.88
2023-05-06T05:44:49.637Z,11.50
2023-05-06T05:47:16.378Z,10.82
2023-05-06T05:49:43.081Z,9.57
2023-05-06T05:52:10.373Z,13.85
2023-05-06T05:54:37.294Z,12.57
2023-05-06T05:57:04.030Z,12.75
2023-05-06T05:59:31.740Z,13.90
2023-05-06T06:01:58.593Z,12.93
2023-05-06T06:04:25.681Z,15.63
2023-05-06T06:06:52.386Z,15.52
2023-05-06T06:09:19.011Z,16.05
2023-05-06T06:11:45.624Z,18.23
2023-05-06T06:14:12.256Z,14.30
2023-05-06T06:16:39.050Z,12.43
2023-05-06T06:19:06.588Z,13.85
2023-05-06T06:21:33.382Z,15.30
2023-05-06T06:24:00.174Z,13.40
2023-05-06T06:26:26.818Z,14.82
2023-05-06T06:28:53.538Z,12.70
2023-05-06T06:31:20.140Z,12.13
2023-05-06T06:33:46.753Z,12.35
2023-05-06T06:36:13.377Z,11.88
2023-05-06T06:38:41.555Z,10.35
2023-05-06T06:41:08.162Z,14.93
2023-05-06T06:43:34.772Z,10.98
2023-05-06T06:46:01.550Z,14.00
2023-05-06T06:48:28.284Z,14.32
2023-05-06T06:50:54.948Z,13.20
2023-05-06T06:53:21.587Z,12.93
2023-05-06T06:55:50.386Z,12.85
2023-05-06T06:58:16.990Z,13.10
2023-05-06T07:00:43.564Z,13.20
2023-05-06T07:03:10.252Z,13.70
2023-05-06T07:05:36.930Z,14.13
2023-05-06T07:08:03.597Z,14.85
2023-05-06T07:10:30.286Z,11.27
2023-05-06T07:12:58.369Z,13.77
2023-05-06T07:15:25.270Z,14.52
2023-05-06T07:17:51.949Z,14.23
2023-05-06T07:20:18.711Z,11.80
2023-05-06T07:22:45.983Z,15.55
2023-05-06T07:25:13.112Z,16.13
2023-05-06T07:27:39.973Z,10.40
2023-05-06T07:30:07.324Z,12.82
2023-05-06T07:32:34.090Z,14.35
2023-05-06T07:35:00.850Z,11.85
2023-05-06T07:37:27.488Z,12.30
2023-05-06T07:39:54.208Z,11.50
2023-05-06T07:42:20.816Z,7.93
2023-05-06T07:44:47.483Z,11.05
2023-05-06T07:47:27.595Z,9.15
2023-05-06T07:49:55.017Z,15.45
2023-05-06T07:52:22.834Z,14.13
2023-05-06T07:54:49.488Z,11.35
2023-05-06T07:57:16.871Z,11.10
2023-05-06T07:59:44.572Z,12.10
2023-05-06T08:02:11.207Z,11.50
2023-05-06T08:04:40.884Z,12.68
2023-05-06T08:07:07.555Z,12.88
2023-05-06T08:09:34.305Z,14.55
2023-05-06T08:12:00.976Z,13.40
2023-05-06T08:14:27.695Z,13.75
2023-05-06T08:16:54.781Z,14.45
2023-05-06T08:19:21.542Z,15.05
2023-05-06T08:21:48.809Z,19.45
2023-05-06T08:24:15.500Z,14.02
2023-05-06T08:26:42.170Z,15.05
2023-05-06T08:29:08.740Z,11.70
2023-05-06T08:31:35.501Z,16.45
2023-05-06T08:34:02.161Z,13.35
2023-05-06T08:36:28.764Z,14.63
2023-05-06T08:38:55.409Z,15.63
2023-05-06T08:41:22.273Z,13.85
2023-05-06T08:43:50.390Z,13.73
2023-05-06T08:46:18.095Z,15.32
2023-05-06T08:48:45.478Z,14.35
2023-05-06T08:51:15.413Z,12.52
2023-05-06T08:53:49.086Z,13.77
2023-05-06T08:56:16.871Z,11.47
2023-05-06T08:58:46.693Z,9.63
2023-05-06T09:01:15.107Z,16.10
2023-05-06T09:03:41.897Z,12.98
2023-05-06T09:06:08.655Z,12.90
2023-05-06T09:08:36.255Z,13.68
2023-05-06T09:11:03.152Z,15.38
2023-05-06T09:13:30.317Z,17.30
2023-05-06T09:15:57.046Z,15.25
2023-05-06T09:18:23.854Z,17.30
2023-05-06T09:20:50.599Z,14.77
2023-05-06T09:23:18.319Z,16.45
2023-05-06T09:25:47.052Z,14.15
2023-05-06T09:28:14.581Z,13.25
2023-05-06T09:30:45.677Z,13.82
2023-05-06T09:33:12.612Z,12.38
2023-05-06T09:35:42.126Z,14.80
2023-05-06T09:38:09.586Z,15.85
2023-05-06T09:40:37.177Z,14.93
2023-05-06T09:43:04.889Z,13.90
2023-05-06T09:45:31.774Z,14.73
2023-05-06T09:47:59.370Z,15.23
2023-05-06T09:50:26.828Z,15.45
2023-05-06T09:52:55.281Z,14.60
2023-05-06T09:55:23.483Z,14.30
2023-05-06T09:57:50.483Z,15.00
2023-05-06T10:00:17.739Z,14.57
2023-05-06T10:02:45.890Z,13.38
2023-05-06T10:05:13.604Z,12.85
2023-05-06T10:07:42.396Z,14.27
2023-05-06T10:10:11.599Z,14.25
2023-05-06T10:12:38.994Z,20.25
2023-05-06T10:15:06.603Z,15.02
2023-05-06T10:17:35.644Z,17.95
2023-05-06T10:20:04.785Z,12.00
2023-05-06T10:22:40.396Z,11.85
2023-05-06T10:25:14.611Z,16.05
2023-05-06T10:27:44.378Z,11.95
2023-05-06T10:30:14.078Z,69.60
2023-05-06T10:32:43.219Z,23.80
2023-05-06T10:35:22.771Z,47.95
2023-05-06T10:37:51.761Z,46.35
2023-05-06T10:40:19.252Z,19.02
2023-05-06T10:42:45.913Z,29.25
2023-05-06T10:45:15.366Z,17.40
2023-05-06T10:47:57.828Z,32.40
2023-05-06T10:50:26.301Z,39.88
2023-05-06T10:52:57.849Z,18.00
2023-05-06T10:55:42.543Z,14.93
2023-05-06T10:58:16.347Z,16.55
2023-05-06T11:00:54.476Z,15.38
2023-05-06T11:03:23.877Z,15.63
2023-05-06T11:05:52.247Z,15.32
2023-05-06T11:08:28.032Z,12.40
2023-05-06T11:10:54.926Z,13.27
2023-05-06T11:13:29.193Z,17.98
2023-05-06T11:18:32.031Z,17.80
2023-05-06T11:21:02.450Z,16.80
2023-05-06T11:23:49.552Z,20.88
2023-05-06T11:26:16.759Z,17.90
2023-05-06T11:28:45.060Z,14.43
2023-05-06T11:31:13.341Z,17.65
2023-05-06T11:33:47.124Z,16.38
2023-05-06T11:36:20.756Z,12.45
2023-05-06T11:38:52.793Z,10.50
2023-05-06T11:41:20.073Z,14.88
2023-05-06T11:43:47.705Z,11.00
2023-05-06T11:46:14.330Z,20.77
2023-05-06T11:48:40.896Z,13.77
2023-05-06T11:51:08.382Z,13.88
2023-05-06T11:53:35.222Z,10.95
2023-05-06T11:56:02.130Z,13.90
2023-05-06T11:58:31.680Z,13.15
2023-05-06T12:01:00.619Z,13.52
2023-05-06T12:03:29.354Z,18.60
2023-05-06T12:05:56.503Z,13.02
2023-05-06T12:08:27.837Z,10.88
2023-05-06T12:11:02.727Z,10.48
2023-05-06T12:13:30.109Z,11.70
2023-05-06T12:15:59.323Z,12.45
2023-05-06T12:18:26.728Z,11.93
2023-05-06T12:20:57.635Z,11.63
2023-05-06T12:23:24.302Z,11.27
2023-05-06T12:26:01.386Z,10.13
2023-05-06T12:28:28.099Z,12.00
2023-05-06T12:30:54.680Z,9.88
2023-05-06T12:33:21.548Z,11.98
2023-05-06T12:35:48.984Z,10.10
2023-05-06T12:38:17.071Z,14.73
2023-05-06T12:40:52.627Z,10.80
2023-05-06T12:43:19.251Z,9.55
2023-05-06T12:46:03.564Z,8.15
2023-05-06T12:48:30.372Z,10.43
2023-05-06T12:50:57.131Z,8.27
2023-05-06T12:53:35.641Z,9.63
2023-05-06T12:56:02.266Z,6.00
2023-05-06T12:58:28.881Z,8.02
2023-05-06T13:00:55.492Z,8.05
2023-05-06T13:03:22.141Z,8.23
2023-05-06T13:05:50.387Z,9.63
2023-05-06T13:08:17.069Z,10.95
2023-05-06T13:10:43.750Z,8.88
2023-05-06T13:13:10.430Z,10.13
2023-05-06T13:15:37.391Z,7.90
2023-05-06T13:18:04.291Z,7.80
2023-05-06T13:20:32.397Z,8.15
2023-05-06T13:22:59.390Z,7.40
2023-05-06T13:25:26.022Z,9.23
2023-05-06T13:27:53.225Z,8.77
2023-05-06T13:30:19.937Z,8.70
2023-05-06T13:32:47.260Z,8.18
2023-05-06T13:35:13.896Z,7.03
2023-05-06T13:37:40.610Z,9.10
2023-05-06T13:40:08.747Z,7.13
2023-05-06T13:42:36.456Z,6.35
2023-05-06T13:45:03.171Z,9.15
2023-05-06T13:47:29.799Z,6.65
2023-05-06T13:49:56.388Z,3.97
2023-05-06T13:52:25.315Z,4.65
2023-05-06T13:54:52.030Z,4.80
2023-05-06T13:57:19.069Z,5.90
2023-05-06T13:59:45.924Z,7.07
2023-05-06T14:02:13.010Z,5.50
2023-05-06T14:04:39.848Z,5.88
2023-05-06T14:07:07.620Z,7.25
2023-05-06T14:09:34.380Z,5.93
2023-05-06T14:12:01.492Z,4.80
2023-05-06T14:14:28.259Z,6.30
2023-05-06T14:16:55.720Z,8.23
2023-05-06T14:19:22.384Z,10.02
2023-05-06T14:21:49.057Z,10.05
2023-05-06T14:24:18.123Z,10.38
2023-05-06T14:26:46.155Z,7.55
2023-05-06T14:29:12.877Z,7.85
2023-05-06T14:31:39.501Z,7.40
2023-05-06T14:34:06.145Z,7.57
2023-05-06T14:36:32.805Z,6.85
2023-05-06T14:38:59.492Z,8.13
2023-05-06T14:41:27.353Z,12.38
2023-05-06T14:43:54.073Z,13.70
2023-05-06T14:46:21.068Z,12.43
2023-05-06T14:48:47.724Z,12.50
2023-05-06T14:51:14.350Z,12.95
2023-05-06T14:53:41.382Z,14.80
2023-05-06T14:56:10.340Z,14.52
2023-05-06T14:58:37.233Z,11.85
2023-05-06T15:01:03.892Z,11.27
2023-05-06T15:03:30.632Z,13.18
2023-05-06T15:05:57.374Z,12.18
2023-05-06T15:08:24.157Z,12.45
2023-05-06T15:10:53.716Z,9.45
2023-05-06T15:13:20.489Z,7.00
2023-05-06T15:15:50.280Z,5.18
2023-05-06T15:18:17.046Z,7.38
2023-05-06T15:20:46.644Z,11.07
2023-05-06T15:23:13.252Z,5.90
2023-05-06T15:25:40.000Z,5.50
2023-05-06T15:28:06.780Z,3.20
2023-05-06T15:30:36.197Z,4.95
2023-05-06T15:33:02.998Z,6.00
2023-05-06T15:35:33.326Z,9.68
2023-05-06T15:38:03.297Z,8.23
2023-05-06T15:40:30.128Z,4.45
2023-05-06T15:42:58.192Z,4.28
2023-05-06T15:45:27.689Z,3.92
2023-05-06T15:47:55.579Z,10.07
2023-05-06T15:50:32.479Z,5.57
2023-05-06T15:53:01.641Z,4.15
2023-05-06T15:55:35.073Z,4.80
2023-05-06T15:58:08.108Z,3.92
2023-05-06T16:00:34.788Z,5.40
2023-05-06T16:03:01.566Z,8.68
2023-05-06T16:05:28.189Z,5.90
2023-05-06T16:07:56.009Z,4.30
2023-05-06T16:10:22.824Z,4.68
2023-05-06T16:12:52.571Z,5.35
2023-05-06T16:15:19.600Z,4.80
2023-05-06T16:17:46.269Z,3.92
2023-05-06T16:20:13.255Z,4.15
2023-05-06T16:22:40.521Z,5.10
2023-05-06T16:25:07.419Z,6.20
2023-05-06T16:27:34.059Z,7.18
2023-05-06T16:30:01.060Z,7.38
2023-05-06T16:32:27.908Z,5.45
2023-05-06T16:34:54.764Z,4.10
2023-05-06T16:37:21.439Z,4.07
2023-05-06T16:39:48.050Z,3.78
2023-05-06T16:42:14.601Z,5.55
2023-05-06T16:44:41.228Z,3.63
2023-05-06T16:47:07.940Z,3.88
2023-05-06T16:49:34.624Z,4.35
2023-05-06T16:52:01.383Z,3.08
2023-05-06T16:54:28.065Z,5.80
2023-05-06T16:56:54.860Z,7.93
2023-05-06T16:59:22.429Z,1.80
2023-05-06T17:01:49.901Z,3.22
2023-05-06T17:04:16.872Z,3.65
2023-05-06T17:06:43.523Z,3.15
2023-05-06T17:09:10.993Z,2.70
2023-05-06T17:11:37.699Z,4.00
2023-05-06T17:14:04.358Z,10.77
2023-05-06T17:16:31.086Z,7.85
2023-05-06T17:18:57.724Z,7.43
2023-05-06T17:21:25.109Z,5.05
2023-05-06T17:23:54.444Z,5.05
2023-05-06T17:26:21.690Z,6.45
2023-05-06T17:28:48.463Z,3.20
2023-05-06T17:31:17.594Z,5.13
2023-05-06T17:33:45.301Z,6.75
2023-05-06T17:36:13.701Z,5.88
2023-05-06T17:38:40.309Z,5.05
2023-05-06T17:41:06.905Z,3.80
2023-05-06T17:43:34.227Z,4.55
2023-05-06T17:46:01.221Z,8.05
2023-05-06T17:48:27.845Z,5.78
2023-05-06T17:50:55.762Z,5.93
2023-05-06T17:53:23.110Z,7.95
2023-05-06T17:55:49.667Z,7.80
2023-05-06T17:58:17.412Z,5.85
2023-05-06T18:00:44.162Z,6.55
2023-05-06T18:03:11.467Z,8.00
2023-05-06T18:05:38.184Z,5.60
2023-05-06T18:08:04.940Z,5.05
2023-05-06T18:10:31.570Z,6.70
2023-05-06T18:12:58.392Z,8.45
2023-05-06T18:15:26.011Z,7.93
2023-05-06T18:17:52.742Z,9.18
2023-05-06T18:20:19.444Z,5.28
2023-05-06T18:22:46.475Z,7.20
2023-05-06T18:25:13.197Z,6.47
2023-05-06T18:27:40.098Z,6.70
2023-05-06T18:30:07.412Z,5.72
2023-05-06T18:32:34.814Z,5.63
2023-05-06T18:35:01.673Z,6.78
2023-05-06T18:37:29.226Z,7.00
2023-05-06T18:39:55.984Z,7.47
2023-05-06T18:42:23.005Z,6.40
2023-05-06T18:44:52.710Z,7.22
2023-05-06T18:47:19.879Z,7.40
2023-05-06T18:49:46.466Z,7.97
2023-05-06T18:52:14.950Z,5.68
2023-05-06T18:54:41.799Z,7.80
2023-05-06T18:57:08.523Z,7.20
2023-05-06T18:59:35.157Z,8.18
2023-05-06T19:02:03.718Z,8.63
2023-05-06T19:04:31.516Z,8.00
2023-05-06T19:06:58.227Z,13.60
2023-05-06T19:09:24.831Z,9.82
2023-05-06T19:11:51.416Z,8.38
2023-05-06T19:14:18.094Z,12.35
2023-05-06T19:16:45.144Z,9.20
2023-05-06T19:19:11.856Z,11.30
2023-05-06T19:21:38.541Z,10.90
2023-05-06T19:24:06.520Z,11.10
2023-05-06T19:26:33.169Z,8.95
2023-05-06T19:28:59.812Z,10.68
2023-05-06T19:31:26.574Z,9.10
2023-05-06T19:33:53.281Z,8.30
2023-05-06T19:36:19.976Z,9.05
2023-05-06T19:38:46.556Z,9.90
2023-05-06T19:41:13.471Z,6.70
2023-05-06T19:43:43.998Z,6.95
2023-05-06T19:46:11.793Z,12.80
2023-05-06T19:48:41.691Z,11.27
2023-05-06T19:51:08.539Z,7.93
2023-05-06T19:53:36.220Z,8.30
2023-05-06T19:56:12.998Z,9.25
2023-05-06T19:58:39.807Z,8.20
2023-05-06T20:01:06.599Z,10.10
2023-05-06T20:03:33.578Z,10.85
2023-05-06T20:06:00.708Z,10.50
2023-05-06T20:08:27.481Z,11.57
2023-05-06T20:10:54.395Z,8.73
2023-05-06T20:13:21.113Z,11.95
2023-05-06T20:15:48.885Z,6.40
2023-05-06T20:18:15.794Z,8.82
2023-05-06T20:20:43.433Z,8.85
2023-05-06T20:23:10.150Z,8.70
2023-05-06T20:25:37.361Z,9.25
2023-05-06T20:28:06.654Z,8.23
2023-05-06T20:30:33.933Z,9.73
2023-05-06T20:33:01.165Z,12.40
2023-05-06T20:35:28.014Z,10.30
2023-05-06T20:37:55.801Z,11.85
2023-05-06T20:40:22.492Z,10.02
2023-05-06T20:42:49.173Z,13.57
2023-05-06T20:45:16.030Z,17.08
2023-05-06T20:47:42.790Z,13.02
2023-05-06T20:50:16.431Z,13.77
2023-05-06T20:52:47.258Z,12.30
2023-05-06T20:55:16.616Z,18.45
2023-05-06T20:57:44.377Z,12.48
2023-05-06T21:00:11.638Z,14.75
2023-05-06T21:02:41.153Z,12.30
2023-05-06T21:05:09.374Z,12.68
2023-05-06T21:07:36.396Z,13.95
2023-05-06T21:10:05.741Z,15.07
2023-05-06T21:12:33.398Z,18.15
2023-05-06T21:15:00.979Z,12.30
2023-05-06T21:17:28.719Z,12.25
2023-05-06T21:19:55.539Z,12.82
2023-05-06T21:22:23.442Z,9.98
2023-05-06T21:24:50.838Z,12.65
2023-05-06T21:27:17.564Z,12.45
2023-05-06T21:29:44.206Z,15.85
2023-05-06T21:32:10.975Z,13.02
2023-05-06T21:34:37.754Z,13.60
2023-05-06T21:37:04.401Z,15.32
2023-05-06T21:39:31.183Z,12.02
2023-05-06T21:41:57.875Z,13.60
2023-05-06T21:44:24.491Z,13.85
2023-05-06T21:46:51.367Z,14.25
2023-05-06T21:49:19.526Z,16.15
2023-05-06T21:51:46.176Z,15.40
2023-05-06T21:54:12.980Z,13.40
2023-05-06T21:56:39.685Z,14.43
2023-05-06T21:59:07.893Z,17.13
2023-05-06T22:01:36.349Z,14.02
2023-05-06T22:04:04.933Z,19.42
2023-05-06T22:06:31.628Z,17.05
2023-05-06T22:08:58.203Z,17.05
2023-05-06T22:11:24.922Z,15.48
2023-05-06T22:13:51.898Z,16.88
2023-05-06T22:16:18.655Z,17.50
2023-05-06T22:18:45.281Z,18.13
2023-05-06T22:21:11.946Z,16.65
2023-05-06T22:23:40.535Z,19.00
2023-05-06T22:26:07.256Z,17.27
2023-05-06T22:28:34.122Z,20.27
2023-05-06T22:31:00.750Z,17.55
2023-05-06T22:33:27.435Z,19.25
2023-05-06T22:35:55.420Z,15.48
2023-05-06T22:38:22.081Z,14.68
2023-05-06T22:40:48.778Z,14.75
2023-05-06T22:43:15.510Z,13.43
2023-05-06T22:45:42.251Z,14.88
2023-05-06T22:48:08.981Z,17.77
2023-05-06T22:50:36.457Z,18.17
2023-05-06T22:53:13.573Z,14.70
2023-05-06T22:55:41.901Z,21.13
2023-05-06T22:58:08.500Z,17.67
2023-05-06T23:00:35.168Z,17.92
2023-05-06T23:03:01.971Z,21.17
2023-05-06T23:05:28.687Z,20.40
2023-05-06T23:07:55.303Z,18.75
2023-05-06T23:10:21.908Z,17.05
2023-05-06T23:12:48.615Z,19.65
2023-05-06T23:15:15.328Z,22.92
2023-05-06T23:17:42.072Z,15.77
2023-05-06T23:20:09.059Z,17.17
2023-05-06T23:22:35.774Z,19.05
2023-05-06T23:25:02.401Z,18.55
2023-05-06T23:27:28.998Z,18.48
2023-05-06T23:29:55.992Z,15.75
2023-05-06T23:32:22.578Z,18.90
2023-05-06T23:34:49.592Z,15.55
2023-05-06T23:37:17.585Z,17.80
2023-05-06T23:39:44.351Z,16.75
2023-05-06T23:42:11.226Z,18.88
2023-05-06T23:44:37.764Z,15.70
2023-05-06T23:47:04.421Z,18.90
2023-05-06T23:49:31.851Z,19.42
2023-05-06T23:51:58.466Z,19.17
2023-05-06T23:54:25.143Z,16.35
2023-05-06T23:56:51.772Z,18.05
2023-05-06T23:59:18.436Z,17.73
